Time;durP1;ratioP1;P1;durP2;ratioP2;P2;SDS_P1;SDS_P2;PMS_P1;PMS_P2;Temp;Humidity;BMP_temperature;BMP_pressure;BME280_temperature;BME280_humidity;BME280_pressure;Samples;Min_cycle;Max_cycle;Signal;HPM_P1;HPM_P2
2021/03/24 05:51:56;;;;;;;;;;;;;;;0.95;83.90;99622.17;1724675;82;20147;-41
2021/03/24 05:54:30;;;;;;;;;;;;;;;1.03;83.34;99619.38;1734638;80;20618;-36
2021/03/24 05:57:09;;;;;;;;;;;;;;;1.06;83.23;99622.05;1689012;82;20183;-36
2021/03/24 05:59:56;;;;;;;;;;;;;;;1.10;83.31;99629.44;1687523;82;20482;-40
2021/03/24 06:02:52;;;;;;;;;;;;;;;1.15;83.31;99631.30;1680711;84;20177;-40
2021/03/24 06:05:27;;;;;;;;;;;;;;;1.27;83.27;99639.36;1694403;82;20228;-39
2021/03/24 06:08:19;;;;;;;;;;;;;;;1.37;82.78;99634.47;1691726;82;20277;-39
2021/03/24 06:11:05;;;;;;;;;;;;;;;1.50;82.16;99636.52;1799101;78;20271;-41
2021/03/24 06:14:00;;;;;;;;;;;;;;;1.51;81.90;99644.31;1782139;79;20573;-41
2021/03/24 06:17:01;;;;;;;;;;;;;;;1.60;81.71;99647.11;1774489;79;20181;-36
2021/03/24 06:19:34;;;;;;;;;;;;;;;1.67;81.20;99653.71;1776891;79;20610;-36
2021/03/24 06:22:17;;;;;;;;;;;;;;;1.63;80.66;99652.78;1776238;79;20171;-41
2021/03/24 06:25:07;;;;;;;;;;;;;;;1.52;81.04;99664.52;1780261;80;20639;-41
2021/03/24 06:27:58;;;;;;;;;;;;;;;1.45;81.39;99662.59;1780514;79;20477;-34
2021/03/24 06:30:49;;;;;;;;;;;;;;;1.40;81.72;99666.78;1777570;79;20613;-39
2021/03/24 06:34:03;;;;;;;;;;;;;;;1.37;81.80;99680.44;1775976;79;20170;-38
2021/03/24 06:41:42;;;;;;;;;;;;;;;1.49;81.50;99687.63;1699743;82;20203;-35
2021/03/24 06:49:09;;;;;;;;;;;;;;;1.57;80.61;99690.89;1696639;82;20599;-38
2021/03/24 06:52:43;;;;;;;;;;;;;;;1.66;80.12;99695.81;1696847;82;20505;-38
2021/03/24 06:55:41;;;;;;;;;;;;;;;1.67;79.45;99703.58;1696629;82;20510;-40
2021/03/24 06:58:35;;;;;;;;;;;;;;;1.68;79.44;99707.03;1700124;82;20487;-34
2021/03/24 07:01:36;;;;;;;;;;;;;;;1.70;79.05;99713.13;1704007;82;20693;-38
2021/03/24 07:04:31;;;;;;;;;;;;;;;1.74;78.93;99720.09;1700888;82;20220;-34
2021/03/24 07:07:37;;;;;;;;;;;;;;;1.77;78.60;99725.34;1702555;82;20296;-36
2021/03/24 07:10:25;;;;;;;;;;;;;;;1.77;78.90;99728.79;1705430;82;20353;-35
2021/03/24 07:13:06;;;;;;;;;;;;;;;1.82;78.79;99732.78;1697601;82;20561;-39
2021/03/24 07:15:47;;;;;;;;;;;;;;;1.82;78.43;99736.23;1704284;82;20468;-34
2021/03/24 07:18:54;;;;;;;;;;;;;;;1.80;78.44;99748.66;1729227;80;20182;-40
2021/03/24 07:26:32;;;;;;;;;;;;;;;1.79;78.29;99756.77;1775849;79;20480;-41
2021/03/24 07:29:39;;;;;;;;;;;;;;;1.81;78.55;99759.42;1773873;79;20266;-34
2021/03/24 07:33:46;;;;;;;;;;;;;;;1.85;78.47;99772.41;1777238;79;20306;-35
2021/03/24 07:36:54;;;;;;;;;;;;;;;1.89;78.29;99764.35;1776150;79;20485;-37
2021/03/24 07:39:48;;;;;;;;;;;;;;;1.94;78.19;99777.38;1777188;79;20461;-40
2021/03/24 07:42:40;;;;;;;;;;;;;;;1.97;78.14;99770.99;1702916;82;20267;-40
2021/03/24 07:45:28;;;;;;;;;;;;;;;2.04;78.11;99781.53;1704508;82;20195;-39
2021/03/24 07:48:32;;;;;;;;;;;;;;;2.12;77.82;99784.30;1702848;83;20179;-40
2021/03/24 07:51:20;;;;;;;;;;;;;;;2.19;77.70;99781.03;1702682;82;20484;-35
2021/03/24 07:54:02;;;;;;;;;;;;;;;2.30;77.49;99790.34;1703975;83;20207;-41
2021/03/24 07:56:39;;;;;;;;;;;;;;;2.38;77.07;99796.17;1679807;83;20619;-36
2021/03/24 07:59:17;;;;;;;;;;;;;;;2.42;76.70;99803.56;1700606;82;20612;-36
2021/03/24 08:02:08;;;;;;;;;;;;;;;2.45;76.53;99801.06;1700009;82;20294;-41
2021/03/24 08:04:43;;;;;;;;;;;;;;;2.42;76.52;99807.85;1703402;82;20481;-37
2021/03/24 08:07:34;;;;;;;;;;;;;;;2.38;76.62;99813.38;1699796;83;20372;-36
2021/03/24 08:10:22;;;;;;;;;;;;;;;2.37;76.65;99818.05;1710599;83;20168;-36
2021/03/24 08:13:10;;;;;;;;;;;;;;;2.40;76.99;99825.47;1713067;81;20199;-39
2021/03/24 08:16:02;;;;;;;;;;;;;;;2.39;76.68;99830.19;1713094;83;20559;-40
2021/03/24 08:18:54;;;;;;;;;;;;;;;2.40;76.70;99828.48;1732621;80;20173;-40
2021/03/24 08:21:33;;;;;;;;;;;;;;;2.41;76.38;99828.93;1775888;80;20201;-41
2021/03/24 08:28:22;;;;;;;;;;;;;;;2.34;76.27;99839.52;1781133;80;20179;-40
2021/03/24 08:35:34;;;;;;;;;;;;;;;2.37;76.07;99851.63;1777179;79;20175;-35
2021/03/24 08:39:35;;;;;;;;;;;;;;;2.41;76.47;99847.00;1775118;80;20333;-40
2021/03/24 08:42:49;;;;;;;;;;;;;;;2.51;75.99;99861.03;1776311;80;20424;-40
2021/03/24 08:46:01;;;;;;;;;;;;;;;2.57;75.53;99866.34;1778029;80;20482;-41
2021/03/24 08:49:26;;;;;;;;;;;;;;;2.60;75.82;99868.57;1774291;80;20601;-35
2021/03/24 08:52:18;;;;;;;;;;;;;;;2.67;76.37;99869.63;1780002;79;20192;-41
2021/03/24 08:55:18;;;;;;;;;;;;;;;2.71;76.31;99873.14;1771924;80;20197;-41
2021/03/24 08:58:00;;;;;;;;;;;;;;;2.76;76.21;99871.13;1779364;79;20362;-41
2021/03/24 09:01:05;;;;;;;;;;;;;;;2.87;76.61;99860.64;1757119;80;20226;-36
2021/03/24 09:03:55;;;;;;;;;;;;;;;2.96;75.72;99863.87;1779917;80;20545;-35
2021/03/24 09:06:52;;;;;;;;;;;;;;;3.00;75.80;99868.25;1779687;80;20535;-36
2021/03/24 09:09:45;;;;;;;;;;;;;;;3.07;76.19;99866.26;1778272;79;20145;-40
2021/03/24 09:12:24;;;;;;;;;;;;;;;3.17;76.20;99873.81;1772311;80;20202;-35
2021/03/24 09:15:24;;;;;;;;;;;;;;;3.23;75.96;99871.80;1756406;80;20177;-35
2021/03/24 09:17:59;;;;;;;;;;;;;;;3.25;76.17;99869.72;1771560;80;20170;-35
2021/03/24 09:20:40;;;;;;;;;;;;;;;3.22;76.33;99879.97;1773627;80;20505;-40
2021/03/24 09:23:51;;;;;;;;;;;;;;;3.19;75.99;99874.33;1771940;80;20189;-41
2021/03/24 09:27:17;;;;;;;;;;;;;;;3.14;76.25;99870.76;1775415;80;20515;-41
2021/03/24 09:30:11;;;;;;;;;;;;;;;3.06;76.37;99873.98;1767187;80;20258;-35
2021/03/24 09:33:02;;;;;;;;;;;;;;;2.96;76.69;99884.55;1774011;80;20246;-35
2021/03/24 09:35:50;;;;;;;;;;;;;;;2.88;77.37;99880.89;1711101;83;20617;-41
2021/03/24 09:38:19;;;;;;;;;;;;;;;2.87;77.73;99877.85;1713892;83;20604;-35
2021/03/24 09:40:50;;;;;;;;;;;;;;;2.74;77.72;99880.56;1707837;83;20200;-40
2021/03/24 09:43:27;;;;;;;;;;;;;;;2.68;77.29;99884.28;1711167;82;20365;-35
2021/03/24 09:46:07;;;;;;;;;;;;;;;2.61;77.86;99870.34;1711511;83;20601;-41
2021/03/24 09:48:49;;;;;;;;;;;;;;;2.56;78.23;99883.56;1704913;83;20246;-39
2021/03/24 09:51:23;;;;;;;;;;;;;;;2.51;78.30;99881.27;1710149;83;20235;-35
2021/03/24 09:54:06;;;;;;;;;;;;;;;2.59;79.08;99871.13;1801434;77;20295;-41
2021/03/24 09:57:22;;;;;;;;;;;;;;;2.65;79.12;99891.94;1765539;78;20287;-41
2021/03/24 10:08:10;;;;;;;;;;;;;;;2.74;78.32;99890.89;1712086;81;20578;-37
2021/03/24 10:11:44;;;;;;;;;;;;;;;2.82;78.12;99900.12;1715421;81;20191;-41
2021/03/24 10:15:33;;;;;;;;;;;;;;;2.79;77.19;99900.06;1723220;81;20204;-36
2021/03/24 10:19:03;;;;;;;;;;;;;;;2.62;77.16;99908.67;1716481;81;20502;-42
2021/03/24 10:23:02;;;;;;;;;;;;;;;2.53;77.81;99902.84;1693110;83;20306;-37
2021/03/24 10:33:58;;;;;;;;;;;;;;;2.45;79.23;99904.36;1713428;83;20168;-34
2021/03/24 10:36:52;;;;;;;;;;;;;;;2.48;79.09;99904.84;1702926;82;20297;-37
2021/03/24 10:39:40;;;;;;;;;;;;;;;2.45;78.73;99903.06;1703903;82;20196;-40
2021/03/24 10:42:44;;;;;;;;;;;;;;;2.37;78.87;99911.01;1704242;82;20575;-40
2021/03/24 10:45:43;;;;;;;;;;;;;;;2.32;79.40;99908.33;1705007;82;20598;-35
2021/03/24 10:48:30;;;;;;;;;;;;;;;2.31;79.36;99910.84;1699265;82;20552;-37
2021/03/24 10:51:19;;;;;;;;;;;;;;;2.31;79.48;99910.42;1803455;78;20315;-36
2021/03/24 10:53:46;;;;;;;;;;;;;;;2.25;79.46;99915.84;1770620;79;20787;-41
2021/03/24 10:56:21;;;;;;;;;;;;;;;2.21;79.15;99918.78;1771887;79;20232;-41
2021/03/24 10:59:03;;;;;;;;;;;;;;;2.18;79.53;99920.39;1773780;79;20587;-35
2021/03/24 11:01:57;;;;;;;;;;;;;;;2.17;79.97;99919.52;1771056;79;20165;-35
2021/03/24 11:04:59;;;;;;;;;;;;;;;2.20;79.94;99912.26;1772375;79;20540;-38
2021/03/24 11:07:38;;;;;;;;;;;;;;;2.24;79.92;99905.06;1771322;79;20740;-35
2021/03/24 11:10:20;;;;;;;;;;;;;;;2.31;79.91;99905.27;1769847;79;20489;-39
2021/03/24 11:13:03;;;;;;;;;;;;;;;2.39;79.99;99915.40;1753118;79;20544;-36
2021/03/24 11:15:50;;;;;;;;;;;;;;;2.47;78.73;99915.59;1767005;79;20556;-36
2021/03/24 11:18:21;;;;;;;;;;;;;;;2.47;78.39;99914.30;1721174;81;20208;-36
2021/03/24 11:20:56;;;;;;;;;;;;;;;2.52;78.29;99917.87;1725571;81;20387;-40
2021/03/24 11:23:40;;;;;;;;;;;;;;;2.58;77.83;99913.30;1704621;82;20211;-35
2021/03/24 11:26:27;;;;;;;;;;;;;;;2.58;76.99;99913.30;1722004;81;20555;-40
2021/03/24 11:28:58;;;;;;;;;;;;;;;2.51;76.08;99913.55;1725279;81;20177;-39
2021/03/24 11:31:46;;;;;;;;;;;;;;;2.46;75.92;99911.69;1807437;77;20276;-40
2021/03/24 11:34:43;;;;;;;;;;;;;;;2.39;76.49;99916.69;1784698;79;20206;-41
2021/03/24 11:37:21;;;;;;;;;;;;;;;2.38;75.82;99912.36;1804493;77;20552;-41
2021/03/24 11:39:53;;;;;;;;;;;;;;;2.39;76.38;99914.11;1732854;81;20282;-40
2021/03/24 11:42:21;;;;;;;;;;;;;;;2.43;76.06;99912.88;1730320;81;20170;-39
2021/03/24 11:44:51;;;;;;;;;;;;;;;2.46;75.63;99912.97;1729820;81;20584;-40
2021/03/24 11:47:46;;;;;;;;;;;;;;;2.50;76.01;99910.52;1728300;81;20203;-40
2021/03/24 11:50:30;;;;;;;;;;;;;;;2.57;76.18;99913.71;1727895;81;20239;-41
2021/03/24 11:53:08;;;;;;;;;;;;;;;2.62;75.17;99913.84;1687842;83;20299;-40
2021/03/24 11:55:53;;;;;;;;;;;;;;;2.62;75.46;99916.00;1685688;83;20276;-39
2021/03/24 11:58:30;;;;;;;;;;;;;;;2.60;75.64;99915.06;1803553;78;20611;-36
2021/03/24 12:01:06;;;;;;;;;;;;;;;2.48;76.08;99916.04;1738239;81;20174;-40
2021/03/24 12:03:37;;;;;;;;;;;;;;;2.43;75.95;99912.88;1736174;81;20393;-35
2021/03/24 12:06:22;;;;;;;;;;;;;;;2.39;75.75;99917.98;1735736;81;20213;-36
2021/03/24 12:09:03;;;;;;;;;;;;;;;2.39;76.09;99915.81;1735190;81;20389;-39
2021/03/24 12:11:42;;;;;;;;;;;;;;;2.39;76.30;99920.98;1738193;81;20212;-49
2021/03/24 12:14:16;;;;;;;;;;;;;;;2.34;75.99;99916.11;1735604;81;20422;-39
2021/03/24 12:16:56;;;;;;;;;;;;;;;2.32;76.08;99925.11;1672869;84;20197;-47
2021/03/24 12:19:42;;;;;;;;;;;;;;;2.33;76.08;99929.86;1711148;82;21177;-47
2021/03/24 12:22:53;;;;;;;;;;;;;;;2.35;76.67;99929.47;1704027;82;20234;-48
2021/03/24 12:26:11;;;;;;;;;;;;;;;2.39;76.22;99928.30;1706277;82;20229;-43
2021/03/24 12:28:44;;;;;;;;;;;;;;;2.42;76.25;99926.63;1704666;83;20368;-41
2021/03/24 12:31:21;;;;;;;;;;;;;;;2.42;75.36;99930.08;1672451;83;20210;-47
2021/03/24 12:33:54;;;;;;;;;;;;;;;2.43;75.85;99930.95;1703627;83;20554;-49
2021/03/24 12:36:29;;;;;;;;;;;;;;;2.47;75.76;99929.79;1679707;84;20254;-49
2021/03/24 12:39:07;;;;;;;;;;;;;;;2.53;74.94;99932.53;1709842;83;20155;-44
2021/03/24 12:41:38;;;;;;;;;;;;;;;2.57;74.51;99941.25;1696208;83;20561;-46
2021/03/24 12:44:18;;;;;;;;;;;;;;;2.53;72.51;99935.54;1717257;83;20175;-49
2021/03/24 12:46:52;;;;;;;;;;;;;;;2.49;72.33;99931.12;1655939;85;20193;-48
2021/03/24 12:49:25;;;;;;;;;;;;;;;2.48;73.12;99935.41;1653475;85;20164;-43
2021/03/24 12:52:21;;;;;;;;;;;;;;;2.55;73.07;99933.47;1796183;78;20535;-42
2021/03/24 12:54:52;;;;;;;;;;;;;;;2.55;72.40;99935.15;1743823;80;20204;-43
2021/03/24 12:57:28;;;;;;;;;;;;;;;2.57;72.15;99934.80;1743428;80;20292;-40
2021/03/24 13:00:04;;;;;;;;;;;;;;;2.60;71.46;99934.44;1775725;80;20157;-41
2021/03/24 13:03:02;;;;;;;;;;;;;;;2.62;71.21;99936.66;1777052;80;20174;-48
2021/03/24 13:05:52;;;;;;;;;;;;;;;2.63;70.97;99938.83;1771031;80;20374;-47
2021/03/24 13:08:29;;;;;;;;;;;;;;;2.57;70.07;99947.28;1778799;80;20502;-40
2021/03/24 13:11:13;;;;;;;;;;;;;;;2.52;70.61;99941.13;1767697;80;20270;-39
2021/03/24 13:13:52;;;;;;;;;;;;;;;2.50;70.66;99944.09;1766269;80;20164;-40
2021/03/24 13:16:32;;;;;;;;;;;;;;;2.51;70.82;99945.84;1771303;80;20392;-40
2021/03/24 13:19:05;;;;;;;;;;;;;;;2.53;70.50;99945.45;1777341;80;20172;-40
2021/03/24 13:21:45;;;;;;;;;;;;;;;2.57;70.65;99945.13;1777446;80;20476;-46
2021/03/24 13:24:40;;;;;;;;;;;;;;;2.53;69.63;99945.45;1773488;80;20212;-47
2021/03/24 13:27:16;;;;;;;;;;;;;;;2.49;70.12;99950.06;1760137;81;20197;-46
2021/03/24 13:29:48;;;;;;;;;;;;;;;2.45;70.20;99955.13;1752955;80;20176;-40
2021/03/24 13:32:22;;;;;;;;;;;;;;;2.43;70.79;99944.73;1762230;81;20158;-46
2021/03/24 13:35:02;;;;;;;;;;;;;;;2.43;70.29;99944.73;1761723;80;20169;-40
2021/03/24 13:37:31;;;;;;;;;;;;;;;2.44;69.74;99959.42;1773004;80;20173;-47
2021/03/24 13:40:25;;;;;;;;;;;;;;;2.41;69.84;99955.45;1773321;80;20459;-39
2021/03/24 13:42:59;;;;;;;;;;;;;;;2.42;70.34;99958.48;1776911;79;20171;-39
2021/03/24 13:45:47;;;;;;;;;;;;;;;2.44;70.50;99951.67;1775194;80;20163;-40
2021/03/24 13:48:24;;;;;;;;;;;;;;;2.46;70.78;99950.00;1771453;80;20655;-47
2021/03/24 13:51:03;;;;;;;;;;;;;;;2.47;71.01;99950.88;1745875;80;20197;-39
2021/03/24 13:53:59;;;;;;;;;;;;;;;2.46;70.80;99954.30;1722993;83;20672;-41
2021/03/24 13:56:46;;;;;;;;;;;;;;;2.44;71.04;99950.39;1720798;80;20564;-46
